createdAt,value
2018-12-21T00:00:40.879Z,-1.10
2018-12-21T00:03:13.353Z,-1.10
2018-12-21T00:05:46.010Z,-1.10
2018-12-21T00:08:20.316Z,-1.00
2018-12-21T00:10:53.347Z,-1.10
2018-12-21T00:13:26.100Z,-1.00
2018-12-21T00:15:59.042Z,-1.10
2018-12-21T00:18:30.094Z,-1.10
2018-12-21T00:21:03.608Z,-1.10
2018-12-21T00:23:34.464Z,-1.10
2018-12-21T00:26:07.218Z,-1.10
2018-12-21T00:28:38.254Z,-1.10
2018-12-21T00:39:57.460Z,-1.20
2018-12-21T00:43:44.964Z,-1.10
2018-12-21T00:46:21.867Z,-1.10
2018-12-21T00:48:54.679Z,-1.10
2018-12-21T00:51:30.313Z,-1.00
2018-12-21T00:54:03.563Z,-1.10
2018-12-21T00:56:35.986Z,-1.00
2018-12-21T00:59:10.382Z,-1.00
2018-12-21T01:01:42.785Z,-1.00
2018-12-21T01:04:15.034Z,-1.00
2018-12-21T01:06:47.890Z,-1.00
2018-12-21T01:09:21.161Z,-1.00
2018-12-21T01:11:58.239Z,-1.00
2018-12-21T01:14:32.903Z,-1.00
2018-12-21T01:17:04.643Z,-1.00
2018-12-21T01:19:37.361Z,-1.00
2018-12-21T01:22:09.990Z,-0.90
2018-12-21T01:24:42.788Z,-0.90
2018-12-21T01:27:18.488Z,-0.90
2018-12-21T01:29:51.193Z,-1.00
2018-12-21T01:32:24.085Z,-0.90
2018-12-21T01:34:58.506Z,-0.90
2018-12-21T01:37:32.531Z,-0.90
2018-12-21T01:40:11.129Z,-1.00
2018-12-21T01:42:45.929Z,-1.00
2018-12-21T01:45:23.638Z,-1.00
2018-12-21T01:47:58.107Z,-1.00
2018-12-21T01:50:37.074Z,-1.00
2018-12-21T01:53:09.052Z,-1.00
2018-12-21T01:55:41.464Z,-0.90
2018-12-21T01:58:14.034Z,-0.90
2018-12-21T02:00:47.005Z,-1.00
2018-12-21T02:03:19.618Z,-0.90
2018-12-21T02:05:51.942Z,-0.90
2018-12-21T02:08:24.495Z,-0.90
2018-12-21T02:10:59.030Z,-0.90
2018-12-21T02:13:33.988Z,-0.90
2018-12-21T02:16:06.586Z,-1.00
2018-12-21T02:18:48.467Z,-1.00
2018-12-21T02:21:21.190Z,-1.00
2018-12-21T02:23:54.308Z,-1.10
2018-12-21T02:26:31.754Z,-1.00
2018-12-21T02:29:04.663Z,-1.10
2018-12-21T02:31:37.062Z,-1.10
2018-12-21T02:34:09.709Z,-1.10
2018-12-21T02:36:41.905Z,-1.10
2018-12-21T02:39:15.652Z,-1.10
2018-12-21T02:41:48.085Z,-1.10
2018-12-21T02:44:20.463Z,-1.10
2018-12-21T02:46:52.709Z,-1.10
2018-12-21T02:49:23.068Z,-1.10
2018-12-21T02:52:05.741Z,-1.10
2018-12-21T02:54:40.271Z,-1.10
2018-12-21T02:57:14.393Z,-1.00
2018-12-21T02:59:47.433Z,-1.10
2018-12-21T03:02:27.595Z,-1.10
2018-12-21T03:05:03.053Z,-1.20
2018-12-21T03:07:35.269Z,-1.20
2018-12-21T03:10:16.002Z,-1.20
2018-12-21T03:12:51.508Z,-1.30
2018-12-21T03:15:33.307Z,-1.30
2018-12-21T03:18:05.935Z,-1.30
2018-12-21T03:20:38.035Z,-1.30
2018-12-21T03:23:13.099Z,-1.30
2018-12-21T03:25:46.494Z,-1.40
2018-12-21T03:28:22.139Z,-1.30
2018-12-21T03:30:54.595Z,-1.30
2018-12-21T03:33:26.677Z,-1.30
2018-12-21T03:36:03.138Z,-1.30
2018-12-21T03:38:37.540Z,-1.40
2018-12-21T03:41:16.724Z,-1.40
2018-12-21T03:43:48.812Z,-1.30
2018-12-21T03:46:20.941Z,-1.30
2018-12-21T03:48:53.274Z,-1.30
2018-12-21T03:51:25.373Z,-1.30
2018-12-21T03:53:58.157Z,-1.30
2018-12-21T03:56:32.589Z,-1.20
2018-12-21T03:59:05.237Z,-1.20
2018-12-21T04:01:37.249Z,-1.20
2018-12-21T04:04:09.432Z,-1.20
2018-12-21T04:06:42.054Z,-1.20
2018-12-21T04:09:14.154Z,-1.30
2018-12-21T04:11:44.446Z,-1.30
2018-12-21T04:14:16.758Z,-1.30
2018-12-21T04:16:49.442Z,-1.30
2018-12-21T04:19:25.878Z,-1.30
2018-12-21T04:22:08.214Z,-1.30
2018-12-21T04:24:40.769Z,-1.30
2018-12-21T04:27:14.184Z,-1.30
2018-12-21T04:29:46.289Z,-1.30
2018-12-21T04:32:18.533Z,-1.30
2018-12-21T04:34:51.313Z,-1.40
2018-12-21T04:37:24.385Z,-1.40
2018-12-21T04:39:56.320Z,-1.40
2018-12-21T04:42:28.575Z,-1.40
2018-12-21T04:45:00.759Z,-1.40
2018-12-21T04:47:33.193Z,-1.40
2018-12-21T04:50:07.036Z,-1.40
2018-12-21T04:52:43.398Z,-1.40
2018-12-21T04:55:13.840Z,-1.40
2018-12-21T04:57:46.540Z,-1.40
2018-12-21T05:00:18.491Z,-1.50
2018-12-21T05:02:51.661Z,-1.40
2018-12-21T05:05:24.082Z,-1.50
2018-12-21T05:07:56.194Z,-1.40
2018-12-21T05:10:28.281Z,-1.40
2018-12-21T05:13:00.521Z,-1.40
2018-12-21T05:15:32.728Z,-1.40
2018-12-21T05:18:04.999Z,-1.40
2018-12-21T05:20:37.148Z,-1.40
2018-12-21T05:23:10.168Z,-1.40
2018-12-21T05:25:42.785Z,-1.50
2018-12-21T05:28:15.060Z,-1.40
2018-12-21T05:30:47.238Z,-1.40
2018-12-21T05:33:19.539Z,-1.40
2018-12-21T05:35:51.782Z,-1.40
2018-12-21T05:38:23.915Z,-1.40
2018-12-21T05:40:56.124Z,-1.40
2018-12-21T05:43:28.789Z,-1.40
2018-12-21T05:46:01.648Z,-1.40
2018-12-21T05:48:34.210Z,-1.40
2018-12-21T05:51:06.873Z,-1.40
2018-12-21T05:53:39.277Z,-1.40
2018-12-21T05:56:09.462Z,-1.40
2018-12-21T05:58:42.777Z,-1.40
2018-12-21T06:01:14.991Z,-1.40
2018-12-21T06:03:47.241Z,-1.40
2018-12-21T06:06:21.583Z,-1.40
2018-12-21T06:08:55.845Z,-1.40
2018-12-21T06:11:28.408Z,-1.40
2018-12-21T06:14:02.529Z,-1.40
2018-12-21T06:16:35.215Z,-1.40
2018-12-21T06:19:07.244Z,-1.50
2018-12-21T06:21:39.633Z,-1.50
2018-12-21T06:24:11.797Z,-1.50
2018-12-21T06:26:43.986Z,-1.50
2018-12-21T06:29:16.247Z,-1.50
2018-12-21T06:31:48.643Z,-1.50
2018-12-21T06:34:22.926Z,-1.50
2018-12-21T06:36:57.035Z,-1.50
2018-12-21T06:39:28.941Z,-1.50
2018-12-21T06:42:03.098Z,-1.50
2018-12-21T06:44:37.457Z,-1.50
2018-12-21T06:47:10.273Z,-1.50
2018-12-21T06:49:42.522Z,-1.50
2018-12-21T06:52:14.615Z,-1.50
2018-12-21T06:54:51.957Z,-1.50
2018-12-21T06:57:26.656Z,-1.50
2018-12-21T06:59:59.538Z,-1.50
2018-12-21T07:02:35.485Z,-1.50
2018-12-21T07:05:11.179Z,-1.50
2018-12-21T07:07:53.033Z,-1.40
2018-12-21T07:10:27.665Z,-1.40
2018-12-21T07:13:00.396Z,-1.40
2018-12-21T07:15:33.382Z,-1.40
2018-12-21T07:18:05.231Z,-1.30
2018-12-21T07:20:37.332Z,-1.30
2018-12-21T07:23:09.700Z,-1.30
2018-12-21T07:25:43.005Z,-1.30
2018-12-21T07:28:15.271Z,-1.30
2018-12-21T07:30:49.711Z,-1.30
2018-12-21T07:33:21.485Z,-1.30
2018-12-21T07:35:54.030Z,-1.30
2018-12-21T07:38:26.749Z,-1.20
2018-12-21T07:40:58.969Z,-1.20
2018-12-21T07:43:31.593Z,-1.20
2018-12-21T07:46:06.134Z,-1.10
2018-12-21T07:48:38.035Z,-1.10
2018-12-21T07:51:10.698Z,-1.10
2018-12-21T07:53:42.812Z,-1.10
2018-12-21T07:56:15.014Z,-1.10
2018-12-21T07:58:47.054Z,-1.10
2018-12-21T08:01:19.313Z,-1.10
2018-12-21T08:03:51.332Z,-1.10
2018-12-21T08:06:23.695Z,-1.10
2018-12-21T08:08:57.993Z,-1.00
2018-12-21T08:11:30.705Z,-1.00
2018-12-21T08:14:03.036Z,-1.00
2018-12-21T08:16:35.488Z,-1.00
2018-12-21T08:19:09.497Z,-0.90
2018-12-21T08:21:44.591Z,-0.90
2018-12-21T08:24:16.530Z,-0.90
2018-12-21T08:26:49.054Z,-0.90
2018-12-21T08:29:21.204Z,-0.90
2018-12-21T08:32:05.191Z,-0.80
2018-12-21T08:34:37.567Z,-0.80
2018-12-21T08:37:09.775Z,-0.70
2018-12-21T08:42:40.117Z,-0.60
2018-12-21T08:45:12.338Z,-0.60
2018-12-21T08:47:46.433Z,-0.60
2018-12-21T08:50:20.713Z,-0.60
2018-12-21T08:52:53.363Z,-0.60
2018-12-21T08:55:25.863Z,-0.50
2018-12-21T08:57:58.215Z,-0.50
2018-12-21T09:00:30.621Z,-0.50
2018-12-21T09:03:03.469Z,-0.40
2018-12-21T09:05:36.123Z,-0.40
2018-12-21T09:08:11.063Z,-0.30
2018-12-21T09:10:44.402Z,-0.30
2018-12-21T09:13:18.197Z,-0.20
2018-12-21T09:15:50.558Z,-0.20
2018-12-21T09:18:23.042Z,-0.20
2018-12-21T09:20:57.233Z,-0.10
2018-12-21T09:23:29.261Z,-0.10
2018-12-21T09:26:01.471Z,0.00
2018-12-21T09:28:33.686Z,0.00
2018-12-21T09:31:05.619Z,0.10
2018-12-21T09:33:38.007Z,0.00
2018-12-21T09:36:10.373Z,0.10
2018-12-21T09:38:42.805Z,0.10
2018-12-21T09:41:15.257Z,0.10
2018-12-21T09:43:47.460Z,0.10
2018-12-21T09:46:19.734Z,0.20
2018-12-21T09:48:52.318Z,0.20
2018-12-21T09:51:24.550Z,0.20
2018-12-21T09:53:56.744Z,0.30
2018-12-21T09:56:28.986Z,0.30
2018-12-21T09:59:03.064Z,0.30
2018-12-21T10:01:35.507Z,0.30
2018-12-21T10:04:08.162Z,0.30
2018-12-21T10:06:40.164Z,0.30
2018-12-21T10:09:12.311Z,0.30
2018-12-21T10:11:44.344Z,0.40
2018-12-21T10:14:20.237Z,0.40
2018-12-21T10:16:52.420Z,0.40
2018-12-21T10:19:24.762Z,0.40
2018-12-21T10:21:56.922Z,0.40
2018-12-21T10:24:29.262Z,0.40
2018-12-21T10:27:01.255Z,0.40
2018-12-21T10:29:33.526Z,0.40
2018-12-21T10:32:05.908Z,0.40
2018-12-21T10:34:38.193Z,0.40
2018-12-21T10:37:10.316Z,0.40
2018-12-21T10:39:43.236Z,0.40
2018-12-21T10:42:15.136Z,0.40
2018-12-21T10:44:47.420Z,0.40
2018-12-21T10:47:19.742Z,0.50
2018-12-21T10:49:52.156Z,0.50
2018-12-21T10:52:24.212Z,0.60
2018-12-21T10:54:56.636Z,0.60
2018-12-21T10:57:32.783Z,0.70
2018-12-21T11:00:06.582Z,0.80
2018-12-21T11:02:39.938Z,0.80
2018-12-21T11:05:17.348Z,0.80
2018-12-21T11:07:49.522Z,0.90
2018-12-21T11:10:21.920Z,0.90
2018-12-21T11:12:54.719Z,0.90
2018-12-21T11:15:26.922Z,0.90
2018-12-21T11:18:01.226Z,0.90
2018-12-21T11:20:34.213Z,0.80
2018-12-21T11:23:08.163Z,0.90
2018-12-21T11:25:42.494Z,0.90
2018-12-21T11:28:14.345Z,0.90
2018-12-21T11:30:46.727Z,0.90
2018-12-21T11:33:19.127Z,0.90
2018-12-21T11:35:51.168Z,0.90
2018-12-21T11:38:23.627Z,1.00
2018-12-21T11:40:55.855Z,1.00
2018-12-21T11:43:28.008Z,1.00
2018-12-21T11:46:00.490Z,1.10
2018-12-21T11:48:32.618Z,1.10
2018-12-21T11:51:04.918Z,1.20
2018-12-21T11:53:37.070Z,1.20
2018-12-21T11:56:09.369Z,1.20
2018-12-21T11:58:41.318Z,1.20
2018-12-21T12:01:13.972Z,1.20
2018-12-21T12:03:45.996Z,1.30
2018-12-21T12:06:18.986Z,1.30
2018-12-21T12:08:51.462Z,1.30
2018-12-21T12:11:25.966Z,1.30
2018-12-21T12:13:57.938Z,1.20
2018-12-21T12:16:30.201Z,1.20
2018-12-21T12:19:02.160Z,1.20
2018-12-21T12:21:34.311Z,1.20
2018-12-21T12:24:06.222Z,1.10
2018-12-21T12:26:44.364Z,1.10
2018-12-21T12:29:12.994Z,1.10
2018-12-21T12:31:45.336Z,1.10
2018-12-21T12:34:17.307Z,1.10
2018-12-21T12:36:49.822Z,1.10
2018-12-21T12:39:22.102Z,1.20
2018-12-21T12:41:54.662Z,1.10
2018-12-21T12:44:26.692Z,1.20
2018-12-21T12:46:59.118Z,1.20
2018-12-21T12:49:31.478Z,1.20
2018-12-21T12:52:03.703Z,1.20
2018-12-21T12:54:35.782Z,1.20
2018-12-21T12:57:08.218Z,1.20
2018-12-21T12:59:40.219Z,1.30
2018-12-21T13:02:12.648Z,1.30
2018-12-21T13:04:44.712Z,1.30
2018-12-21T13:07:16.918Z,1.40
2018-12-21T13:09:48.858Z,1.30
2018-12-21T13:12:21.394Z,1.40
2018-12-21T13:14:53.830Z,1.40
2018-12-21T13:17:25.959Z,1.40
2018-12-21T13:19:58.082Z,1.30
2018-12-21T13:22:30.167Z,1.30
2018-12-21T13:25:11.238Z,1.30
2018-12-21T13:27:37.164Z,1.30
2018-12-21T13:30:11.885Z,1.30
2018-12-21T13:32:46.952Z,1.30
2018-12-21T13:35:18.702Z,1.30
2018-12-21T13:37:51.115Z,1.20
2018-12-21T13:40:23.222Z,1.20
2018-12-21T13:42:55.114Z,1.20
2018-12-21T13:45:27.136Z,1.20
2018-12-21T13:47:59.176Z,1.20
2018-12-21T13:50:31.423Z,1.20
2018-12-21T13:53:03.560Z,1.20
2018-12-21T13:55:35.626Z,1.20
2018-12-21T13:58:08.115Z,1.20
2018-12-21T14:00:40.075Z,1.20
2018-12-21T14:03:12.500Z,1.10
2018-12-21T14:05:44.926Z,1.10
2018-12-21T14:08:17.310Z,1.10
2018-12-21T14:10:49.860Z,1.10
2018-12-21T14:13:21.826Z,1.10
2018-12-21T14:15:54.262Z,1.10
2018-12-21T14:18:26.638Z,1.10
2018-12-21T14:20:58.696Z,1.10
2018-12-21T14:23:30.680Z,1.10
2018-12-21T14:26:09.110Z,1.10
2018-12-21T14:28:43.192Z,1.10
2018-12-21T14:31:15.182Z,1.10
2018-12-21T14:33:47.568Z,1.10
2018-12-21T14:36:20.930Z,1.10
2018-12-21T14:38:53.089Z,1.20
2018-12-21T14:41:25.615Z,1.20
2018-12-21T14:44:00.542Z,1.20
2018-12-21T14:46:32.450Z,1.20
2018-12-21T14:49:04.625Z,1.20
2018-12-21T14:51:36.838Z,1.30
2018-12-21T14:54:09.045Z,1.30
2018-12-21T14:56:41.425Z,1.30
2018-12-21T14:59:13.907Z,1.30
2018-12-21T15:01:46.077Z,1.20
2018-12-21T15:04:18.518Z,1.30
2018-12-21T15:06:50.768Z,1.30
2018-12-21T15:09:22.897Z,1.30
2018-12-21T15:11:55.387Z,1.30
2018-12-21T15:14:27.670Z,1.30
2018-12-21T15:16:59.816Z,1.20
2018-12-21T15:19:30.182Z,1.20
2018-12-21T15:22:02.299Z,1.20
2018-12-21T15:24:34.573Z,1.20
2018-12-21T15:27:06.683Z,1.20
2018-12-21T15:29:41.020Z,1.20
2018-12-21T15:32:13.227Z,1.30
2018-12-21T15:34:45.627Z,1.30
2018-12-21T15:37:17.810Z,1.30
2018-12-21T15:39:49.967Z,1.30
2018-12-21T15:42:22.096Z,1.20
2018-12-21T15:44:54.326Z,1.30
2018-12-21T15:47:26.296Z,1.30
2018-12-21T15:49:58.446Z,1.30
2018-12-21T15:52:32.309Z,1.30
2018-12-21T15:55:04.232Z,1.30
2018-12-21T15:57:36.298Z,1.30
2018-12-21T16:00:12.092Z,1.30
2018-12-21T16:02:47.088Z,1.30
2018-12-21T16:05:19.268Z,1.30
2018-12-21T16:07:51.675Z,1.30
2018-12-21T16:10:23.928Z,1.30
2018-12-21T16:12:55.962Z,1.30
2018-12-21T16:15:28.048Z,1.30
2018-12-21T16:18:00.261Z,1.30
2018-12-21T16:20:32.510Z,1.30
2018-12-21T16:23:04.978Z,1.30
2018-12-21T16:25:35.187Z,1.30
2018-12-21T16:28:07.156Z,1.30
2018-12-21T16:30:39.628Z,1.30
2018-12-21T16:33:11.861Z,1.40
2018-12-21T16:35:43.766Z,1.40
2018-12-21T16:38:16.077Z,1.40
2018-12-21T16:40:48.082Z,1.40
2018-12-21T16:43:22.009Z,1.40
2018-12-21T16:45:54.315Z,1.40
2018-12-21T16:48:26.541Z,1.30
2018-12-21T16:50:58.949Z,1.30
2018-12-21T16:53:30.866Z,1.30
2018-12-21T16:56:12.225Z,1.20
2018-12-21T16:58:37.417Z,1.20
2018-12-21T17:01:09.603Z,1.20
2018-12-21T17:03:39.739Z,1.10
2018-12-21T17:06:11.972Z,1.10
2018-12-21T17:08:44.496Z,1.10
2018-12-21T17:11:16.731Z,1.10
2018-12-21T17:13:49.055Z,1.10
2018-12-21T17:16:20.971Z,1.10
2018-12-21T17:18:53.371Z,1.10
2018-12-21T17:21:25.493Z,1.10
2018-12-21T17:23:57.545Z,1.10
2018-12-21T17:26:30.048Z,1.10
2018-12-21T17:29:02.241Z,1.10
2018-12-21T17:31:34.488Z,1.10
2018-12-21T17:34:06.760Z,1.10
2018-12-21T17:36:39.136Z,1.10
2018-12-21T17:39:11.342Z,1.10
2018-12-21T17:41:43.251Z,1.10
2018-12-21T17:44:15.968Z,1.10
2018-12-21T17:46:47.658Z,1.10
2018-12-21T17:51:51.915Z,1.10
2018-12-21T17:54:24.233Z,1.10
2018-12-21T17:56:56.322Z,1.10
2018-12-21T17:59:28.470Z,1.10
2018-12-21T18:02:02.541Z,1.10
2018-12-21T18:04:35.029Z,1.10
2018-12-21T18:07:07.335Z,1.10
2018-12-21T18:09:39.421Z,1.10
2018-12-21T18:12:11.601Z,1.10
2018-12-21T18:14:43.910Z,1.10
2018-12-21T18:17:16.090Z,1.10
2018-12-21T18:19:48.190Z,1.10
2018-12-21T18:22:22.628Z,1.20
2018-12-21T18:25:01.542Z,1.20
2018-12-21T18:27:35.921Z,1.20
2018-12-21T18:30:15.784Z,1.20
2018-12-21T18:32:48.111Z,1.20
2018-12-21T18:35:20.591Z,1.20
2018-12-21T18:37:56.516Z,1.20
2018-12-21T18:40:29.789Z,1.20
2018-12-21T18:43:02.362Z,1.30
2018-12-21T18:45:32.346Z,1.30
2018-12-21T18:48:04.607Z,1.30
2018-12-21T18:50:36.765Z,1.30
2018-12-21T18:53:09.037Z,1.30
2018-12-21T18:55:41.146Z,1.30
2018-12-21T18:58:13.465Z,1.30
2018-12-21T19:00:45.620Z,1.30
2018-12-21T19:03:18.066Z,1.30
2018-12-21T19:05:50.003Z,1.30
2018-12-21T19:08:22.377Z,1.40
2018-12-21T19:10:54.929Z,1.30
2018-12-21T19:13:26.962Z,1.40
2018-12-21T19:15:59.130Z,1.40
2018-12-21T19:18:31.470Z,1.40
2018-12-21T19:21:03.514Z,1.40
2018-12-21T19:23:36.053Z,1.30
2018-12-21T19:26:08.172Z,1.30
2018-12-21T19:28:40.545Z,1.30
2018-12-21T19:31:12.282Z,1.40
2018-12-21T19:33:45.389Z,1.40
2018-12-21T19:36:17.534Z,1.40
2018-12-21T19:38:49.742Z,1.40
2018-12-21T19:41:21.745Z,1.40
2018-12-21T19:43:55.986Z,1.40
2018-12-21T19:46:27.707Z,1.40
2018-12-21T19:48:59.889Z,1.40
2018-12-21T19:51:31.942Z,1.40
2018-12-21T19:54:03.997Z,1.40
2018-12-21T19:56:44.353Z,1.40
2018-12-21T19:59:16.366Z,1.40
2018-12-21T20:01:48.517Z,1.40
2018-12-21T20:04:20.161Z,1.40
2018-12-21T20:06:52.311Z,1.40
2018-12-21T20:09:24.579Z,1.40
2018-12-21T20:11:57.015Z,1.40
2018-12-21T20:14:29.529Z,1.40
2018-12-21T20:17:01.974Z,1.40
2018-12-21T20:19:34.341Z,1.40
2018-12-21T20:22:06.497Z,1.40
2018-12-21T20:24:40.097Z,1.40
2018-12-21T20:27:14.847Z,1.40
2018-12-21T20:29:47.212Z,1.40
2018-12-21T20:32:19.392Z,1.40
2018-12-21T20:34:51.650Z,1.30
2018-12-21T20:37:23.791Z,1.30
2018-12-21T20:39:55.979Z,1.30
2018-12-21T20:42:31.270Z,1.20
2018-12-21T20:45:04.367Z,1.20
2018-12-21T20:47:36.475Z,1.20
2018-12-21T20:50:12.444Z,1.20
2018-12-21T20:52:44.292Z,1.20
2018-12-21T20:55:16.375Z,1.20
2018-12-21T20:57:50.689Z,1.20
2018-12-21T21:00:22.595Z,1.20
2018-12-21T21:10:31.908Z,1.30
2018-12-21T21:13:04.150Z,1.30
2018-12-21T21:15:36.369Z,1.30
2018-12-21T21:18:08.648Z,1.40
2018-12-21T21:20:40.794Z,1.40
2018-12-21T21:23:13.278Z,1.40
2018-12-21T21:25:45.388Z,1.40
2018-12-21T21:28:17.506Z,1.50
2018-12-21T21:30:49.983Z,1.50
2018-12-21T21:33:20.527Z,1.50
2018-12-21T21:35:52.729Z,1.40
2018-12-21T21:38:25.040Z,1.40
2018-12-21T21:40:57.039Z,1.40
2018-12-21T21:43:29.415Z,1.40
2018-12-21T21:46:01.856Z,1.40
2018-12-21T21:48:34.148Z,1.40
2018-12-21T21:51:06.235Z,1.40
2018-12-21T21:53:38.331Z,1.50
2018-12-21T21:56:10.974Z,1.50
2018-12-21T21:58:43.466Z,1.40
2018-12-21T22:01:15.831Z,1.50
2018-12-21T22:03:48.148Z,1.50
2018-12-21T22:06:20.443Z,1.50
2018-12-21T22:08:52.804Z,1.50
2018-12-21T22:11:25.167Z,1.50
2018-12-21T22:13:59.566Z,1.50
2018-12-21T22:16:31.250Z,1.50
2018-12-21T22:19:03.324Z,1.50
2018-12-21T22:21:35.174Z,1.50
2018-12-21T22:24:07.508Z,1.60
2018-12-21T22:26:39.827Z,1.60
2018-12-21T22:29:12.883Z,1.60
2018-12-21T22:31:45.158Z,1.60
2018-12-21T22:34:17.377Z,1.60
2018-12-21T22:36:49.656Z,1.60
2018-12-21T22:39:21.900Z,1.60
2018-12-21T22:41:54.039Z,1.50
2018-12-21T22:44:26.138Z,1.60
2018-12-21T22:46:58.298Z,1.60
2018-12-21T22:49:30.684Z,1.60
2018-12-21T22:52:02.981Z,1.60
2018-12-21T22:54:37.370Z,1.60
2018-12-21T22:57:11.453Z,1.60
2018-12-21T22:59:43.466Z,1.50
2018-12-21T23:02:15.939Z,1.50
2018-12-21T23:04:48.199Z,1.50
2018-12-21T23:07:20.525Z,1.50
2018-12-21T23:09:52.861Z,1.40
2018-12-21T23:12:26.954Z,1.40
2018-12-21T23:15:03.553Z,1.40
2018-12-21T23:17:35.995Z,1.40
2018-12-21T23:20:08.090Z,1.40
2018-12-21T23:22:40.229Z,1.40
2018-12-21T23:25:12.599Z,1.40
2018-12-21T23:27:44.819Z,1.40
2018-12-21T23:30:17.338Z,1.40
2018-12-21T23:32:49.455Z,1.40
2018-12-21T23:35:21.641Z,1.40
2018-12-21T23:37:53.631Z,1.50
2018-12-21T23:40:26.003Z,1.50
2018-12-21T23:42:58.382Z,1.40
2018-12-21T23:45:31.512Z,1.40
2018-12-21T23:48:03.947Z,1.40
2018-12-21T23:50:36.296Z,1.40
2018-12-21T23:53:08.394Z,1.40
2018-12-21T23:55:40.515Z,1.40
2018-12-21T23:58:13.910Z,1.40
